RYR6WC GMTT-GMMX
Flight info
| Callsign | RYR6WC |
|---|---|
| Flight time | 0h 55m |
| Altitude | 33000 |
| Route | SOBMA UN10 BARIS UB11 MABAP |
| Aircraft | B738/M-SDE2E3FGHIRWXY/LB1 |
Departure
| Time | 2026-05-04 18:33 |
|---|---|
| Airport | Tangier Ibn Battuta Airport (GMTT) |
Arrival
| Time | 2026-05-04 19:28 |
|---|---|
| Airport | Marrakesh Menara Airport (GMMX) |
| Time | Latitude | Longitude | Altitude | Speed | Heading |
|---|---|---|---|---|---|
| 2026-05-04 17:45 | 35.72522 | -5.91249 | 59 ft | 0 kts | 355° |
| 2026-05-04 18:25 | 35.72520 | -5.91249 | 59 ft | 2 kts | 355° |
| 2026-05-04 18:25 | 35.72495 | -5.91245 | 57 ft | 4 kts | 346° |
| 2026-05-04 18:25 | 35.72470 | -5.91234 | 55 ft | 4 kts | 328° |
| 2026-05-04 18:26 | 35.72451 | -5.91213 | 53 ft | 4 kts | 294° |
| 2026-05-04 18:26 | 35.72447 | -5.91195 | 57 ft | 0 kts | 265° |
| 2026-05-04 18:28 | 35.72444 | -5.91237 | 54 ft | 9 kts | 265° |
| 2026-05-04 18:28 | 35.72437 | -5.91347 | 56 ft | 16 kts | 266° |
| 2026-05-04 18:28 | 35.72430 | -5.91484 | 59 ft | 16 kts | 266° |
| 2026-05-04 18:29 | 35.72440 | -5.91616 | 52 ft | 15 kts | 295° |
| 2026-05-04 18:29 | 35.72523 | -5.91685 | 57 ft | 15 kts | 350° |
| 2026-05-04 18:29 | 35.72636 | -5.91698 | 59 ft | 18 kts | 355° |
| 2026-05-04 18:29 | 35.72766 | -5.91710 | 59 ft | 19 kts | 355° |
| 2026-05-04 18:30 | 35.72940 | -5.91650 | 57 ft | 14 kts | 92° |
| 2026-05-04 18:30 | 35.72927 | -5.91514 | 52 ft | 19 kts | 96° |
| 2026-05-04 18:30 | 35.72909 | -5.91313 | 59 ft | 27 kts | 97° |
| 2026-05-04 18:31 | 35.72886 | -5.91075 | 53 ft | 29 kts | 96° |
| 2026-05-04 18:31 | 35.72863 | -5.90823 | 59 ft | 30 kts | 96° |
| 2026-05-04 18:31 | 35.72839 | -5.90568 | 55 ft | 30 kts | 96° |
| 2026-05-04 18:31 | 35.72817 | -5.90339 | 58 ft | 19 kts | 96° |
| 2026-05-04 18:32 | 35.72866 | -5.90200 | 55 ft | 19 kts | 27° |
| 2026-05-04 18:32 | 35.72978 | -5.90242 | 54 ft | 18 kts | 303° |
| 2026-05-04 18:32 | 35.73004 | -5.90399 | 54 ft | 26 kts | 277° |
| 2026-05-04 18:32 | 35.73055 | -5.90943 | 59 ft | 103 kts | 277° |
| 2026-05-04 18:33 | 35.73170 | -5.92110 | 110 ft | 162 kts | 276° |
| 2026-05-04 18:33 | 35.73298 | -5.93404 | 1112 ft | 152 kts | 271° |
| 2026-05-04 18:33 | 35.73241 | -5.94764 | 2007 ft | 162 kts | 276° |
| 2026-05-04 18:33 | 35.73431 | -5.96245 | 2652 ft | 183 kts | 282° |
| 2026-05-04 18:34 | 35.73666 | -5.97907 | 3005 ft | 213 kts | 280° |
| 2026-05-04 18:34 | 35.73898 | -5.99742 | 3742 ft | 217 kts | 282° |
| 2026-05-04 18:34 | 35.73933 | -6.01616 | 4459 ft | 228 kts | 256° |
| 2026-05-04 18:34 | 35.73637 | -6.02491 | 4875 ft | 232 kts | 240° |
| 2026-05-04 18:35 | 35.72633 | -6.03781 | 5643 ft | 243 kts | 216° |
| 2026-05-04 18:35 | 35.71574 | -6.04365 | 5960 ft | 263 kts | 195° |
| 2026-05-04 18:35 | 35.70534 | -6.04468 | 6379 ft | 272 kts | 179° |
| 2026-05-04 18:35 | 35.68656 | -6.03997 | 7256 ft | 279 kts | 166° |
| 2026-05-04 18:36 | 35.66797 | -6.03223 | 8141 ft | 284 kts | 164° |
| 2026-05-04 18:36 | 35.64926 | -6.02379 | 9038 ft | 288 kts | 164° |
| 2026-05-04 18:36 | 35.63033 | -6.01527 | 9936 ft | 292 kts | 165° |
| 2026-05-04 18:36 | 35.61090 | -6.00668 | 10556 ft | 306 kts | 165° |
| 2026-05-04 18:37 | 35.59009 | -5.99768 | 10743 ft | 333 kts | 165° |
| 2026-05-04 18:37 | 35.56741 | -5.98798 | 10978 ft | 357 kts | 165° |
| 2026-05-04 18:37 | 35.54386 | -5.97792 | 11580 ft | 367 kts | 165° |
| 2026-05-04 18:37 | 35.51953 | -5.96754 | 12347 ft | 371 kts | 165° |
| 2026-05-04 18:38 | 35.49497 | -5.95711 | 13116 ft | 376 kts | 165° |
| 2026-05-04 18:38 | 35.47000 | -5.94655 | 13875 ft | 382 kts | 165° |
| 2026-05-04 18:38 | 35.44474 | -5.93589 | 14616 ft | 386 kts | 165° |
| 2026-05-04 18:38 | 35.41933 | -5.92526 | 15430 ft | 388 kts | 167° |
| 2026-05-04 18:39 | 35.39446 | -5.91830 | 16205 ft | 386 kts | 176° |
| 2026-05-04 18:39 | 35.36781 | -5.91677 | 17014 ft | 384 kts | 186° |
| 2026-05-04 18:39 | 35.34095 | -5.91767 | 17781 ft | 387 kts | 186° |
| 2026-05-04 18:39 | 35.31389 | -5.91877 | 18538 ft | 390 kts | 186° |
| 2026-05-04 18:40 | 35.28664 | -5.91985 | 19205 ft | 394 kts | 187° |
| 2026-05-04 18:40 | 35.25907 | -5.92086 | 19839 ft | 398 kts | 187° |
| 2026-05-04 18:40 | 35.23123 | -5.92177 | 20471 ft | 402 kts | 187° |
| 2026-05-04 18:40 | 35.20312 | -5.92262 | 21098 ft | 406 kts | 187° |
| 2026-05-04 18:41 | 35.17471 | -5.92344 | 21695 ft | 410 kts | 187° |
| 2026-05-04 18:41 | 35.14608 | -5.92425 | 22285 ft | 414 kts | 187° |
| 2026-05-04 18:41 | 35.11761 | -5.92504 | 22855 ft | 418 kts | 187° |
| 2026-05-04 18:41 | 35.08840 | -5.92585 | 23386 ft | 422 kts | 188° |
| 2026-05-04 18:42 | 35.05935 | -5.92666 | 23894 ft | 425 kts | 188° |
| 2026-05-04 18:42 | 35.02963 | -5.92748 | 24369 ft | 428 kts | 188° |
| 2026-05-04 18:42 | 35.00259 | -5.92823 | 24797 ft | 430 kts | 188° |
| 2026-05-04 18:42 | 34.97375 | -5.92904 | 25238 ft | 433 kts | 188° |
| 2026-05-04 18:43 | 34.94348 | -5.93008 | 25682 ft | 434 kts | 191° |
| 2026-05-04 18:43 | 34.91418 | -5.93644 | 26103 ft | 424 kts | 204° |
| 2026-05-04 18:43 | 34.88713 | -5.94998 | 26558 ft | 417 kts | 214° |
| 2026-05-04 18:43 | 34.86299 | -5.96900 | 26939 ft | 412 kts | 224° |
| 2026-05-04 18:44 | 34.84080 | -5.99126 | 27256 ft | 415 kts | 225° |
| 2026-05-04 18:44 | 34.83330 | -5.99888 | 27384 ft | 416 kts | 225° |
| 2026-05-04 18:44 | 34.79614 | -6.03653 | 28040 ft | 420 kts | 225° |
| 2026-05-04 18:44 | 34.77358 | -6.05917 | 28527 ft | 420 kts | 225° |
| 2026-05-04 18:45 | 34.75102 | -6.08161 | 29184 ft | 416 kts | 225° |
| 2026-05-04 18:45 | 34.72865 | -6.10376 | 29828 ft | 413 kts | 225° |
| 2026-05-04 18:45 | 34.70643 | -6.12573 | 30339 ft | 412 kts | 225° |
| 2026-05-04 18:45 | 34.68418 | -6.14769 | 30824 ft | 410 kts | 225° |
| 2026-05-04 18:46 | 34.66207 | -6.16950 | 31352 ft | 407 kts | 225° |
| 2026-05-04 18:46 | 34.64019 | -6.19107 | 31880 ft | 405 kts | 225° |
| 2026-05-04 18:46 | 34.61837 | -6.21257 | 32363 ft | 403 kts | 225° |
| 2026-05-04 18:46 | 34.59690 | -6.23374 | 32801 ft | 402 kts | 225° |
| 2026-05-04 18:47 | 34.57517 | -6.25516 | 33057 ft | 404 kts | 225° |
| 2026-05-04 18:47 | 34.53125 | -6.29835 | 33052 ft | 407 kts | 224° |
| 2026-05-04 18:48 | 34.48294 | -6.33510 | 33055 ft | 415 kts | 211° |
| 2026-05-04 18:48 | 34.42742 | -6.35731 | 33059 ft | 422 kts | 203° |
| 2026-05-04 18:49 | 34.37090 | -6.37652 | 33057 ft | 421 kts | 203° |
| 2026-05-04 18:49 | 34.31456 | -6.39594 | 33054 ft | 421 kts | 203° |
| 2026-05-04 18:50 | 34.25830 | -6.41557 | 33047 ft | 421 kts | 203° |
| 2026-05-04 18:50 | 34.21156 | -6.43191 | 33058 ft | 421 kts | 203° |
| 2026-05-04 18:51 | 34.15512 | -6.45161 | 33062 ft | 423 kts | 203° |
| 2026-05-04 18:51 | 34.09841 | -6.47137 | 33053 ft | 424 kts | 202° |
| 2026-05-04 18:52 | 34.04159 | -6.49114 | 33047 ft | 425 kts | 202° |
| 2026-05-04 18:52 | 33.98595 | -6.51391 | 33054 ft | 419 kts | 212° |
| 2026-05-04 18:53 | 33.93816 | -6.55235 | 33049 ft | 409 kts | 227° |
| 2026-05-04 18:53 | 33.89772 | -6.60007 | 33060 ft | 409 kts | 229° |
| 2026-05-04 18:54 | 33.85719 | -6.64821 | 33047 ft | 410 kts | 229° |
| 2026-05-04 18:54 | 33.81635 | -6.69625 | 33053 ft | 410 kts | 228° |
| 2026-05-04 18:55 | 33.77544 | -6.74412 | 33079 ft | 410 kts | 228° |
| 2026-05-04 18:55 | 33.71429 | -6.81554 | 33060 ft | 410 kts | 228° |
| 2026-05-04 18:56 | 33.67335 | -6.86330 | 33072 ft | 411 kts | 228° |
| 2026-05-04 18:56 | 33.63243 | -6.91091 | 33078 ft | 411 kts | 228° |
| 2026-05-04 18:57 | 33.59134 | -6.95861 | 33077 ft | 412 kts | 228° |
| 2026-05-04 18:57 | 33.55223 | -7.00395 | 33080 ft | 412 kts | 228° |
| 2026-05-04 18:58 | 33.51105 | -7.05165 | 33074 ft | 412 kts | 227° |
| 2026-05-04 18:58 | 33.46984 | -7.09930 | 33063 ft | 411 kts | 227° |
| 2026-05-04 18:59 | 33.42886 | -7.14665 | 33073 ft | 411 kts | 228° |
| 2026-05-04 18:59 | 33.38773 | -7.19410 | 33080 ft | 410 kts | 228° |
| 2026-05-04 19:00 | 33.34662 | -7.24147 | 33077 ft | 409 kts | 228° |
| 2026-05-04 19:00 | 33.30561 | -7.28864 | 33081 ft | 409 kts | 227° |
| 2026-05-04 19:01 | 33.26489 | -7.33543 | 33075 ft | 408 kts | 227° |
| 2026-05-04 19:01 | 33.22394 | -7.38241 | 33077 ft | 408 kts | 227° |
| 2026-05-04 19:02 | 33.18301 | -7.42933 | 33076 ft | 408 kts | 227° |
| 2026-05-04 19:02 | 33.14210 | -7.47615 | 33039 ft | 409 kts | 227° |
| 2026-05-04 19:03 | 33.12128 | -7.49933 | 32678 ft | 407 kts | 224° |
| 2026-05-04 19:03 | 33.09861 | -7.51923 | 32200 ft | 406 kts | 216° |
| 2026-05-04 19:03 | 33.07434 | -7.53606 | 31777 ft | 401 kts | 214° |
| 2026-05-04 19:03 | 33.05030 | -7.55261 | 31338 ft | 396 kts | 214° |
| 2026-05-04 19:04 | 33.02662 | -7.56901 | 30903 ft | 392 kts | 214° |
| 2026-05-04 19:04 | 33.00320 | -7.58533 | 30474 ft | 388 kts | 214° |
| 2026-05-04 19:04 | 32.98025 | -7.60142 | 30048 ft | 385 kts | 214° |
| 2026-05-04 19:04 | 32.95731 | -7.61751 | 29549 ft | 381 kts | 214° |
| 2026-05-04 19:05 | 32.93454 | -7.63350 | 29088 ft | 378 kts | 214° |
| 2026-05-04 19:05 | 32.91203 | -7.64930 | 28634 ft | 374 kts | 214° |
| 2026-05-04 19:05 | 32.88972 | -7.66495 | 28207 ft | 370 kts | 214° |
| 2026-05-04 19:05 | 32.86743 | -7.68057 | 27791 ft | 376 kts | 214° |
| 2026-05-04 19:06 | 32.84447 | -7.69670 | 27298 ft | 389 kts | 214° |
| 2026-05-04 19:06 | 32.82116 | -7.71315 | 26764 ft | 388 kts | 214° |
| 2026-05-04 19:06 | 32.79810 | -7.72942 | 26302 ft | 384 kts | 214° |
| 2026-05-04 19:06 | 32.77668 | -7.74452 | 25887 ft | 380 kts | 214° |
| 2026-05-04 19:07 | 32.75412 | -7.76044 | 25456 ft | 375 kts | 215° |
| 2026-05-04 19:07 | 32.73193 | -7.77609 | 25038 ft | 371 kts | 215° |
| 2026-05-04 19:07 | 32.70983 | -7.79167 | 24623 ft | 368 kts | 215° |
| 2026-05-04 19:07 | 32.68792 | -7.80708 | 24208 ft | 364 kts | 215° |
| 2026-05-04 19:08 | 32.66617 | -7.82234 | 23743 ft | 363 kts | 215° |
| 2026-05-04 19:08 | 32.64444 | -7.83747 | 23234 ft | 361 kts | 214° |
| 2026-05-04 19:08 | 32.62287 | -7.85243 | 22803 ft | 357 kts | 214° |
| 2026-05-04 19:08 | 32.60155 | -7.86721 | 22389 ft | 353 kts | 214° |
| 2026-05-04 19:09 | 32.58065 | -7.88169 | 21978 ft | 349 kts | 214° |
| 2026-05-04 19:09 | 32.55978 | -7.89616 | 21586 ft | 345 kts | 214° |
| 2026-05-04 19:09 | 32.53919 | -7.91044 | 21202 ft | 341 kts | 214° |
| 2026-05-04 19:09 | 32.51878 | -7.92459 | 20809 ft | 338 kts | 214° |
| 2026-05-04 19:10 | 32.49854 | -7.93862 | 20439 ft | 335 kts | 214° |
| 2026-05-04 19:10 | 32.47879 | -7.95230 | 20065 ft | 333 kts | 214° |
| 2026-05-04 19:10 | 32.45882 | -7.96615 | 19688 ft | 333 kts | 214° |
| 2026-05-04 19:10 | 32.43880 | -7.98001 | 19307 ft | 333 kts | 214° |
| 2026-05-04 19:11 | 32.41868 | -7.99395 | 18942 ft | 341 kts | 214° |
| 2026-05-04 19:11 | 32.39903 | -8.00757 | 18573 ft | 345 kts | 214° |
| 2026-05-04 19:11 | 32.37829 | -8.02190 | 18141 ft | 343 kts | 214° |
| 2026-05-04 19:11 | 32.35781 | -8.03602 | 17691 ft | 339 kts | 214° |
| 2026-05-04 19:12 | 32.33753 | -8.05000 | 17293 ft | 335 kts | 214° |
| 2026-05-04 19:12 | 32.29786 | -8.07735 | 16533 ft | 328 kts | 213° |
| 2026-05-04 19:12 | 32.27828 | -8.09084 | 16163 ft | 324 kts | 213° |
| 2026-05-04 19:13 | 32.25901 | -8.10412 | 15804 ft | 321 kts | 213° |
| 2026-05-04 19:13 | 32.23981 | -8.11735 | 15430 ft | 318 kts | 213° |
| 2026-05-04 19:13 | 32.22074 | -8.13048 | 15067 ft | 316 kts | 213° |
| 2026-05-04 19:13 | 32.20184 | -8.14349 | 14706 ft | 314 kts | 213° |
| 2026-05-04 19:14 | 32.18304 | -8.15643 | 14349 ft | 312 kts | 213° |
| 2026-05-04 19:14 | 32.16432 | -8.16929 | 13985 ft | 310 kts | 213° |
| 2026-05-04 19:14 | 32.14555 | -8.18185 | 13598 ft | 310 kts | 208° |
| 2026-05-04 19:14 | 32.12454 | -8.18788 | 13183 ft | 316 kts | 184° |
| 2026-05-04 19:15 | 32.10278 | -8.18418 | 12882 ft | 320 kts | 163° |
| 2026-05-04 19:15 | 32.08236 | -8.17322 | 12535 ft | 324 kts | 156° |
| 2026-05-04 19:15 | 32.06214 | -8.16101 | 12179 ft | 329 kts | 155° |
| 2026-05-04 19:15 | 32.04163 | -8.14837 | 11744 ft | 335 kts | 155° |
| 2026-05-04 19:16 | 32.02092 | -8.13565 | 11359 ft | 334 kts | 155° |
| 2026-05-04 19:16 | 32.00038 | -8.12311 | 10985 ft | 331 kts | 156° |
| 2026-05-04 19:16 | 31.98020 | -8.11089 | 10642 ft | 327 kts | 156° |
| 2026-05-04 19:16 | 31.96031 | -8.09891 | 10497 ft | 316 kts | 156° |
| 2026-05-04 19:17 | 31.94109 | -8.08737 | 10353 ft | 306 kts | 156° |
| 2026-05-04 19:17 | 31.92241 | -8.07618 | 10221 ft | 296 kts | 156° |
| 2026-05-04 19:17 | 31.90461 | -8.06553 | 10106 ft | 287 kts | 156° |
| 2026-05-04 19:17 | 31.88708 | -8.05504 | 9965 ft | 280 kts | 157° |
| 2026-05-04 19:18 | 31.86972 | -8.04470 | 9634 ft | 280 kts | 157° |
| 2026-05-04 19:18 | 31.85238 | -8.03436 | 9347 ft | 278 kts | 157° |
| 2026-05-04 19:18 | 31.83512 | -8.02407 | 9060 ft | 277 kts | 157° |
| 2026-05-04 19:18 | 31.81807 | -8.01390 | 8811 ft | 273 kts | 156° |
| 2026-05-04 19:19 | 31.80171 | -8.00273 | 8518 ft | 273 kts | 140° |
| 2026-05-04 19:19 | 31.78959 | -7.98582 | 8347 ft | 268 kts | 128° |
| 2026-05-04 19:19 | 31.77834 | -7.96837 | 8081 ft | 266 kts | 128° |
| 2026-05-04 19:19 | 31.76720 | -7.95111 | 7834 ft | 264 kts | 127° |
| 2026-05-04 19:20 | 31.75618 | -7.93411 | 7582 ft | 262 kts | 127° |
| 2026-05-04 19:20 | 31.74513 | -7.91710 | 7315 ft | 261 kts | 127° |
| 2026-05-04 19:20 | 31.73412 | -7.90020 | 7055 ft | 260 kts | 127° |
| 2026-05-04 19:20 | 31.72336 | -7.88372 | 6815 ft | 259 kts | 126° |
| 2026-05-04 19:21 | 31.71229 | -7.86676 | 6554 ft | 258 kts | 126° |
| 2026-05-04 19:21 | 31.70154 | -7.85029 | 6273 ft | 257 kts | 126° |
| 2026-05-04 19:21 | 31.69068 | -7.83371 | 6002 ft | 254 kts | 125° |
| 2026-05-04 19:21 | 31.67996 | -7.81738 | 5744 ft | 252 kts | 126° |
| 2026-05-04 19:22 | 31.66931 | -7.80119 | 5510 ft | 249 kts | 127° |
| 2026-05-04 19:22 | 31.65576 | -7.78883 | 5284 ft | 254 kts | 159° |
| 2026-05-04 19:22 | 31.63853 | -7.78703 | 5114 ft | 248 kts | 191° |
| 2026-05-04 19:22 | 31.62320 | -7.79497 | 4897 ft | 239 kts | 220° |
| 2026-05-04 19:23 | 31.61168 | -7.80836 | 4716 ft | 228 kts | 217° |
| 2026-05-04 19:23 | 31.59730 | -7.81420 | 4468 ft | 218 kts | 188° |
| 2026-05-04 19:23 | 31.58329 | -7.82030 | 4168 ft | 214 kts | 222° |
| 2026-05-04 19:23 | 31.57674 | -7.83457 | 4043 ft | 194 kts | 269° |
| 2026-05-04 19:24 | 31.58062 | -7.84869 | 3976 ft | 181 kts | 311° |
| 2026-05-04 19:24 | 31.58758 | -7.86117 | 3821 ft | 187 kts | 298° |
| 2026-05-04 19:24 | 31.59148 | -7.87575 | 3667 ft | 186 kts | 285° |
| 2026-05-04 19:24 | 31.59366 | -7.88998 | 3633 ft | 167 kts | 282° |
| 2026-05-04 19:25 | 31.59516 | -7.90372 | 3504 ft | 174 kts | 281° |
| 2026-05-04 19:25 | 31.59650 | -7.91794 | 3308 ft | 176 kts | 280° |
| 2026-05-04 19:25 | 31.59775 | -7.93211 | 3063 ft | 173 kts | 279° |
| 2026-05-04 19:25 | 31.59894 | -7.94571 | 2843 ft | 167 kts | 279° |
| 2026-05-04 19:26 | 31.60012 | -7.95925 | 2617 ft | 163 kts | 280° |
| 2026-05-04 19:26 | 31.60126 | -7.97237 | 2424 ft | 162 kts | 280° |
| 2026-05-04 19:26 | 31.60239 | -7.98543 | 2214 ft | 158 kts | 280° |
| 2026-05-04 19:26 | 31.60298 | -7.99205 | 2097 ft | 156 kts | 280° |
| 2026-05-04 19:27 | 31.60413 | -8.00510 | 1855 ft | 151 kts | 278° |
| 2026-05-04 19:27 | 31.60519 | -8.01721 | 1641 ft | 144 kts | 279° |
| 2026-05-04 19:27 | 31.60612 | -8.02785 | 1550 ft | 130 kts | 278° |
| 2026-05-04 19:27 | 31.60686 | -8.03588 | 1541 ft | 66 kts | 276° |
| 2026-05-04 19:28 | 31.60726 | -8.04051 | 1532 ft | 54 kts | 276° |
| 2026-05-04 19:28 | 31.60751 | -8.04333 | 1537 ft | 12 kts | 276° |
| 2026-05-04 19:28 | 31.60698 | -8.04392 | 1530 ft | 13 kts | 186° |
| 2026-05-04 19:28 | 31.60625 | -8.04399 | 1542 ft | 3 kts | 185° |
| 2026-05-04 19:29 | 31.60602 | -8.04398 | 1541 ft | 3 kts | 164° |
| 2026-05-04 19:29 | 31.60584 | -8.04369 | 1547 ft | 8 kts | 109° |
| 2026-05-04 19:29 | 31.60574 | -8.04284 | 1547 ft | 12 kts | 95° |
| 2026-05-04 19:29 | 31.60565 | -8.04176 | 1547 ft | 16 kts | 95° |
| 2026-05-04 19:30 | 31.60552 | -8.04026 | 1542 ft | 20 kts | 96° |
| 2026-05-04 19:30 | 31.60537 | -8.03865 | 1547 ft | 20 kts | 96° |
| 2026-05-04 19:30 | 31.60523 | -8.03708 | 1544 ft | 19 kts | 96° |
| 2026-05-04 19:30 | 31.60510 | -8.03558 | 1543 ft | 18 kts | 96° |
| 2026-05-04 19:31 | 31.60498 | -8.03414 | 1544 ft | 18 kts | 96° |
| 2026-05-04 19:31 | 31.60485 | -8.03276 | 1542 ft | 17 kts | 96° |
| 2026-05-04 19:31 | 31.60473 | -8.03141 | 1548 ft | 16 kts | 96° |
| 2026-05-04 19:31 | 31.60462 | -8.03011 | 1548 ft | 16 kts | 95° |
| 2026-05-04 19:32 | 31.60451 | -8.02889 | 1548 ft | 15 kts | 96° |
| 2026-05-04 19:32 | 31.60440 | -8.02771 | 1539 ft | 14 kts | 96° |
| 2026-05-04 19:32 | 31.60432 | -8.02665 | 1548 ft | 13 kts | 94° |
| 2026-05-04 19:32 | 31.60420 | -8.02593 | 1541 ft | 7 kts | 124° |
| 2026-05-04 19:33 | 31.60376 | -8.02583 | 1546 ft | 7 kts | 188° |
| 2026-05-04 19:33 | 31.60333 | -8.02589 | 1539 ft | 4 kts | 187° |
| 2026-05-04 19:33 | 31.60312 | -8.02592 | 1546 ft | 1 kts | 185° |
| 2026-05-04 19:33 | 31.60311 | -8.02592 | 1542 ft | 0 kts | 185° |